Tropical Cyclones
[Index]
Main Index Home Page Stock Weather Photos Extreme Storms Discussion Storm News and Storm Chasing Reports Tropical Cyclones / Hurricanes / Typhoons Weather Data and Links Wild Fires / Bushfires Weather Observation Techniques Weather Picture Catalogue Tornado Pictures and Reports Stock Video Footage and DVDs for sale
Season 2011-2012 Tropical Cyclone FUNSO Track Map
Season 2011-2012 Summaries (Operational Data): [AU] [SIO] [SPAC] [SH]
<<- Previous TC | 2011-2012 Season | Next TC ->>

click for intensity scale information  Lat/long Grid: Show Hide

 Date Labels: Show Hide

Operational Tropical Cyclone Data : JTWC Advisories

Name: FUNSO
Number: 1208

16 Jan 2012 18:00 UTC to 02 Feb 2012 12:00 UTC

    date/time    lat    long     hPa   cat  kts
2012-01-16 18   15.4    40.6    1010         15          
2012-01-17 00   15.6    40.8    1010         15          
2012-01-17 06   15.8    41.0    1007         20          
2012-01-17 12   16.0    41.2    1004         25          
2012-01-17 18   16.3    41.3    1004         25          
2012-01-18 00   16.6    41.3    1004         25          
2012-01-18 06   16.8    41.3    1004         25          
2012-01-18 12   17.0    41.3    1004         25          
2012-01-18 18   17.4    41.3    1000         30          
2012-01-19 00   17.6    41.1    1000         30          
2012-01-19 06   17.5    40.8     996    1    35          
2012-01-19 12   17.7    40.6     996    1    35          
2012-01-19 18   18.1    40.1     989    1    45          
2012-01-20 00   18.3    39.3     967    3    75          
2012-01-20 06   18.3    38.7     967    3    75          
2012-01-20 12   18.3    38.3     967    3    75          
2012-01-20 18   18.3    38.0     963    3    80          
2012-01-21 00   18.1    37.8     959    3    85          
2012-01-21 06   18.0    37.7     948    4   100          
2012-01-21 12   17.9    37.8     948    4   100          
2012-01-21 18   17.8    38.0     956    4    90          
2012-01-22 00   17.7    38.2     956    4    90          
2012-01-22 06   17.7    38.5     956    4    90          
2012-01-22 12   17.7    38.7     956    4    90          
2012-01-22 18   17.7    39.0     956    4    90          
2012-01-23 00   18.1    39.1     956    4    90          
2012-01-23 06   18.3    39.3     948    4   100          
2012-01-23 12   18.8    39.4     948    4   100          
2012-01-23 18   19.2    39.4     937    5   115          
2012-01-24 00   19.7    39.3     933    5   120          
2012-01-24 06   20.4    39.5     937    5   115          
2012-01-24 12   21.3    39.0     937    5   115          
2012-01-24 18   21.8    38.9     937    5   115          
2012-01-25 00   22.3    38.8     937    5   115          
2012-01-25 06   22.7    38.7     933    5   120          
2012-01-25 12   22.9    38.8     933    5   120          
2012-01-25 18   23.4    38.9     937    5   115          
2012-01-26 00   23.6    39.0     937    5   115          
2012-01-26 06   24.0    39.2     937    5   115          
2012-01-26 12   24.6    39.3     937    5   115          
2012-01-26 18   25.1    39.5     937    5   115          
2012-01-27 00   25.5    39.6     941    5   110          
2012-01-27 06   25.9    39.7     944    4   105          
2012-01-27 12   26.4    39.8     952    4    95          
2012-01-27 18   26.8    40.3     959    3    85          
2012-01-28 00   27.4    40.9     963    3    80          
2012-01-28 06   28.1    41.5     982    2    55          
2012-01-28 12   29.7    42.0     985    2    50          
2012-01-28 18   31.0    43.3     996    1    35          
2012-01-29 00   32.1    44.8     996    1    35          
2012-01-29 06   33.0    45.4     996    1    35          
2012-01-29 12   33.7    46.3     996    1    35          
2012-01-29 18   33.9    48.4     996    1    35          
2012-01-30 00   34.9    50.2     992                     
2012-01-30 06   34.9    50.5     994                     
2012-01-30 12   35.0    50.3     996                     
2012-01-30 18   35.1    50.2    1000                     
2012-01-31 00   35.3    50.6    1002                     
2012-01-31 06   36.4    51.0    1005                     
2012-01-31 12   37.2    51.0    1004                     
2012-01-31 18   37.1    51.4    1007                     
2012-02-01 00   37.4    51.6    1007                     
2012-02-01 06   37.3    52.8    1009                     
2012-02-01 12   36.7    54.6    1009                     
2012-02-01 18   36.9    54.6    1009                     
2012-02-02 00   35.8    56.2    1009                     
2012-02-02 06   35.6    56.2    1011                     
2012-02-02 12   35.5    56.2    1012                     
Winds are 10-min average.

Tropical cyclone tracks developed by Michael Bath using operational warnings and advisories and Google Maps.


[Australian Severe Weather index] [Copyright Notice] [Email Contacts] [Search This Site] [Privacy Policy]
Document: tropical_cyclone_funso.htm Updated: 2 May 2017